Station: Eudunda

  Atmospheric Gas Attenuation - ITU Rec 676-11   --------------- db/100km ---------------
Date Time Temp RH % AH g/m3 Dew Point Wind Direction Speed kph Gust kph Barometer mB Rainfall Since 9am 24GHz 47GHz 76GHz 122GHz 134GHz 241GHz
12 09:00 7.8 96 7.84 7.2 9 1019.8 1 18.2 26.7 40.0 104.8 96.2 329.8
11 09:00 7 93 7.21 5.9 0 1017.2 6 16.9 25.7 37.6 98.5 88.2 301.7
10 09:00 10.9 48 4.78 0.4 17 1021.1 0 11.6 21.1 26.8 69.5 53.8 181.4
09 09:00 3 96 5.71 2.5 0 1025.6 0.1 13.8 24.7 33.5 87.3 72.2 245.1
08 09:00 6.2 85 6.25 3.9 0 1028.7 0.1 14.9 24.8 34.5 89.9 76.7 261.3
07 09:00 7.5 72 5.77 2.8 11 1032.3 0 13.8 23.8 32.2 83.7 69.4 235.6
06 09:00 7.5 79 6.33 4.1 9 1033.8 0 15.0 24.8 34.5 89.8 76.9 261.9
05 09:00 9 80 7.06 5.8 24 1031.4 0.4 16.5 25.4 36.7 95.8 84.9 290.4
04 09:00 7.8 96 7.84 7.2 9 1031.3 1 18.2 27.1 40.5 106.0 97.1 332.9
02 09:00 7.4 93 7.4 6.3 32 1017.7 1 17.3 25.9 38.2 100.1 90.4 309.4
01 09:00 14.5 40 4.98 1.1 13 1013 0 11.9 20.3 26.0 67.7 53.3 180.3
30 09:00 10.1 43 4.07 -1.8 24 1016.1 0.1 10.1 20.0 24.3 63.0 45.7 153.1
29 09:00 5.5 77 5.41 1.8 9 1024.8 0 13.1 23.5 31.2 81.3 65.9 223.3
28 09:00 8.5 59 5.04 1 0 1028.8 0 12.2 22.3 28.8 74.8 59.0 199.5
27 09:00 7.4 79 6.29 4 0 1028.5 0.1 14.9 24.5 34.1 89.0 76.1 259.2
26 09:00 9 88 7.76 7.1 0 1027.8 0.2 18.0 26.5 39.4 103.1 94.2 323.0
25 09:00 10.1 62 5.86 3.3 13 1022.9 0 13.9 22.9 31.1 81.1 67.7 230.2
24 09:00 7.6 96 7.74 7 24 1021.7 0.4 18.0 26.6 39.7 104.1 95.2 326.2
23 09:00 8.2 95 7.96 7.4 35 1021 0.6 18.5 26.8 40.3 105.7 97.4 334.3
22 09:00 9 97 8.55 8.6 24 1018.1 5 19.7 27.4 42.3 111.0 104.4 358.9
21 09:00 9.5 93 8.47 8.5 33 1013.2 10 19.5 27.0 41.5 108.9 102.2 351.3
20 09:00 8.9 95 8.32 8.1 9 1017.7 0.2 19.2 27.1 41.4 108.5 101.3 347.9
19 09:00 14.5 36 4.48 -0.2 32 1019.6 0 10.8 19.8 24.6 63.6 48.0 161.5
18 09:00 8.9 70 6.13 3.7 4 1031.1 0.1 14.5 24.0 33.0 85.9 72.7 247.5
17 09:00 9.6 91 8.34 8.2 0 1033.6 1 19.2 27.5 41.8 109.5 102.0 350.2
16 09:00 11.5 93 9.61 10.4 22 1025.5 0.4 21.9 28.8 45.8 120.4 116.6 401.5
15 09:00 12.4 83 9.07 9.7 24 1023.3 0.4 20.7 27.5 42.9 112.6 107.5 369.9
14 09:00 8.5 90 7.69 7 17 1019.5 2 17.9 26.2 39.0 102.1 93.2 319.5
13 09:00 9.9 66 6.16 3.9 0 1010.3 0.4 14.5 23.0 31.8 83.2 70.8 241.5
12 09:00 8 68 5.62 2.4 0 1022.2 0 13.5 23.1 31.0 80.7 66.4 225.3
11 09:00 9.2 56 5 1 0 1026 0 12.1 22.0 28.3 73.6 57.9 195.6
10 09:00 9 61 5.38 1.9 7 1027.7 0 12.9 22.6 29.9 77.7 62.8 212.9
09 09:00 1013.1
08 09:00 5 84 5.71 2.6 0 1032 0.2 13.8 24.4 32.9 85.7 70.8 240.2
07 09:00 6.8 95 7.27 6.1 0 1027.8 0.2 17.0 26.3 38.4 100.5 90.0 308.0
06 09:00 8 80 6.62 4.7 0 1026.3 0 15.6 24.8 35.1 91.7 79.7 272.1
05 09:00 9 74 6.53 4.6 0 1030.6 0.1 15.4 24.6 34.5 89.9 77.8 265.5
04 09:00 6.3 86 6.37 4.2 7 1034.1 0.2 15.1 25.2 35.2 91.7 78.6 267.9
03 09:00 9.6 84 7.7 7.1 11 1033 0.8 17.8 26.4 39.1 102.2 93.1 319.0
02 09:00 9.9 100 9.34 9.9 37 1025 0.4 21.4 28.8 45.6 119.6 115.1 396.1
31 09:00 10.3 89 8.53 8.5 11 1015.9 0.4 19.6 26.9 41.4 108.7 102.2 351.4
30 09:00 24 1018.1 0
29 09:00 12.8 64 7.17 6.2 0 1026.4 0 16.6 24.4 35.2 91.9 82.0 280.6
28 09:00 11.7 85 8.89 9.2 11 981.8 0.1 20.4 25.8 40.6 107.1 102.4 352.4
27 09:00 11.5 63 6.51 4.8 15 1020 0 15.2 23.5 32.9 86.0 74.4 254.1
26 09:00 8.1 77 6.41 4.3 4 1021 0.1 15.1 24.2 34.0 88.8 76.5 260.8
25 09:00 7 78 6.05 3.5 4 1025 0.2 14.4 24.1 33.2 86.5 73.0 248.5
24 09:00 8.8 96 8.36 8.2 4 997 1 19.3 26.4 40.6 106.8 100.3 344.5
23 09:00 10.5 93 9.02 9.5 17 1022.5 4 20.6 28.0 43.7 114.7 109.4 376.3
22 09:00 8.4 91 7.72 7.1 1024.2 0.6 17.9 26.4 39.4 103.1 94.1 322.6
21 09:00 7.4 83 6.6 4.7 4 1023.4 4 15.6 24.8 35.2 91.9 79.9 272.6
20 09:00 9.4 74 6.69 5 17 1019.7 0.4 15.7 24.3 34.5 90.2 78.8 269.0
19 09:00 15.2 56 7.27 6.5 7 1019.7 0 16.7 23.7 34.3 89.6 80.3 275.1
18 09:00 13.5 65 7.6 7.2 4 1027.2 0 17.5 24.9 36.6 95.7 86.8 297.6
17 09:00 12 65 6.93 5.7 0 1030.8 0 16.1 24.4 34.8 90.8 80.0 273.6
16 09:00 11 52 5.21 1.7 0 1029.5 0 12.5 22.0 28.6 74.3 59.3 200.8
15 09:00 8.5 67 5.72 2.7 0 1030.6 0 13.7 23.4 31.5 82.0 67.7 230.0
14 09:00 9.4 61 5.52 2.4 0 1030.6 0.1 13.2 22.9 30.4 79.0 64.4 218.6
13 09:00 9.5 93 8.47 8.5 4 1027.6 1 19.5 27.5 42.1 110.5 103.5 355.4
12 09:00 11.9 55 5.83 3.2 11 1024.6 0 13.8 22.5 30.4 79.1 65.9 224.1
10 09:00 9 89 7.85 7.3 0 1027.9 0.4 18.2 26.6 39.8 104.1 95.5 327.4
09 09:00 9 87 7.67 6.9 33 1015.4 5 17.8 25.8 38.5 100.8 92.0 315.4
08 09:00 12.4 92 10.05 11.1 13 1015.6 0.4 22.8 28.9 46.7 122.9 120.5 415.5
07 09:00 18.2 31 4.82 0.7 44 1011.6 0 11.4 19.2 24.3 63.2 49.1 166.1
06 09:00 11.4 72 7.39 6.6 7 1023 0 17.1 25.0 36.5 95.6 86.1 294.9
05 09:00 10.4 71 6.84 5.5 7 1028.6 0.1 16.0 24.6 35.0 91.5 80.3 274.5
04 09:00 9.5 80 7.28 6.3 4 1030.2 0.2 17.0 25.6 37.3 97.4 87.2 298.6
03 09:00 8.6 81 6.96 5.6 0 1027.6 8 16.3 25.3 36.3 94.8 83.7 286.3
02 09:00 11.6 95 9.88 10.8 24 1016.7 7 22.4 28.9 46.5 122.3 119.4 411.7
01 09:00 10.6 90 8.79 9 44 1015.2 5 20.2 27.2 42.3 111.2 105.4 362.4
30 09:00 7.4 73 5.81 3 28 1014.6 10 13.9 23.2 31.6 82.6 68.9 234.1
29 09:00 10.8 97 9.59 10.4 24 1008 4 21.9 28.3 45.3 119.2 115.7 398.6
27 09:00 11.5 85 8.78 9 4 1013.1 0.2 20.1 26.9 41.7 109.5 103.8 357.2
26 09:00 15.4 90 11.82 13.8 24 1019.4 12 26.4 31.1 52.7 138.9 141.1 487.9
25 09:00 17 70 10.13 11.6 0 1018 0.2 22.7 27.6 44.5 117.0 114.8 396.1
24 09:00 13.6 89 10.47 11.8 11 1020.8 13 23.6 29.4 48.1 126.4 125.0 431.5
23 09:00 16.4 60 8.37 8.6 0 1006.5 0 19.0 24.5 37.3 98.0 91.7 315.5
22 09:00 15.3 85 11.1 12.8 4 1022.5 0.2 24.8 30.0 49.8 131.1 131.3 453.6
21 09:00 14.9 61 7.77 7.4 0 1018.1 0 17.8 24.4 36.2 94.9 86.7 297.7
20 09:00 15.5 74 9.78 10.9 24 1013.5 0.1 22.0 27.3 43.7 114.9 111.8 385.8
19 09:00 12 92 9.81 10.7 0 1015.4 0.2 22.3 28.6 45.9 120.7 117.7 405.6
18 09:00 12.5 89 9.79 10.8 4 1018.8 0.8 22.2 28.5 45.7 120.1 116.9 403.1
17 09:00 12.9 78 8.79 9.2 13 1020.3 0.1 20.0 26.7 41.3 108.5 102.7 353.3
16 09:00 16.3 79 10.96 12.6 35 1015.2 0 24.5 29.1 48.2 126.9 126.9 438.5
15 09:00 20.4 28 4.95 1.2 4 1018.7 0 11.6 19.2 24.3 63.2 49.5 167.7
14 09:00 21.6 26 4.93 1.6 0 1022.5 0 11.6 19.0 24.1 62.4 48.8 165.1
13 09:00 13 54 6.12 3.9 4 1020.8 0.1 14.3 22.5 30.9 80.6 68.3 232.7
12 09:00 10 62 5.83 3.2 9 1022.6 0 13.8 22.9 31.0 80.8 67.4 229.1
10 09:00 16.4 56 7.82 7.8 33 1018.7 0 17.8 24.1 35.8 93.6 85.8 294.5
09 09:00 14.1 72 8.74 9.1 7 1025.1 0 19.9 26.5 40.7 106.8 100.8 347.0
08 09:00 12.1 73 7.83 7.4 9 1025 0 18.0 25.6 38.1 99.6 91.2 313.0
07 09:00 12.9 76 8.57 8.8 4 1023.7 0 19.6 26.5 40.6 106.4 100.0 343.9
06 09:00 13 91 10.32 11.5 0 1022.9 4 23.3 29.4 47.9 125.9 124.1 428.1
05 09:00 13 86 9.75 10.8 44 1015 22.1 28.1 45.1 118.4 115.3 397.4
04 09:00 11.2 83 8.41 8.4 44 1007.9 8 19.3 26.1 40.1 105.3 98.7 339.4
03 09:00 18.4 54 8.49 9.1 9 1004.3 0.1 19.1 24.1 36.8 96.6 90.7 312.3
02 09:00 11.9 100 10.59 11.9 0 1012.6 2 24.0 29.9 49.2 129.6 128.8 444.4
01 09:00 13.5 82 9.59 10.5 4 1014.6 0.2 21.7 27.7 44.1 115.9 112.3 387.0
31 09:00 11.9 92 9.74 10.6 0 1018.4 0.1 22.1 28.6 45.8 120.4 117.1 403.7
30 09:00 13 71 8.05 8 0 1015.8 0.8 18.4 25.3 38.1 99.9 92.3 317.2

Last Refresh: 13-Jul-2020 07:50:16

Most of the information presented on this site is sourced from the Bureau of Meteorology.  Copyright in all material sourced from the Bureau of Meteorology resides with the Commonwealth of Australia.